Walbridge, Ohio
Current Conditions -  °F | °C
As of 5:53 PM on Friday 19 Dec 2014 (Local Time) from KTDZ Reporting Station
Overcast Overcast  
Wind Chill: 30°   Ceiling: 2200
Heat Index: 30°   Visibility: 10mi
Dew Point: 24°   Wind: 3mph
Humidity: 79%   Direction: 100°E
Pressure: 30.3"   Gusts: NA
Location:  41.59°N, 83.49°W
Report Text: KTDZ 192253Z AUTO 10003KT 10SM OVC022 M01/M04 A3030 RMK AO2 SLP269 T10111044 TSNO
Loading
Personal Weather Stations






























Interactive Weather Map New forecast layout! Learn more

10-Day Weather Forecast

Advertisements
Track Severe Weather on mobile